Elizabeth City Regional Airport & Coast Guard Air Station Elizabeth City US
ICAO: KECG
IATA: ECG
Category: Medium
Scheduled Services: No

Elevation: 12 ft
TransAlt. 18000 ft.

Airport Communications:
NORFOLK APP/DEP:119.55
AIR:34.5
ASOS:118.525
CTAF:120.5
GND:121.9
TWR:120.5
UNICOM:122.95

KECG Zoom In..

Runways:

(A) RW 01 length 4518 ft width 150 ft
---- / hdg 9

(B) RW 10 length 7219 ft width 150 ft
ILS 111.35 / hdg 99

(C) RW 19 length 4518 ft width 150 ft
---- / hdg 189

(D) RW 28 length 7219 ft width 150 ft
---- / hdg 279

Location; KECG
Day. 23 / Time. 09.54 Zulu
* Altimeter: 29.90
* Temperature: 23° c. 73.4°f.
* Wind from: 090° Speed 05 kn.
Dewpoint: 23° c.
Visibility: 10 Statute Miles.
Clouds: Broken 3700 ft.

KECG 230954Z AUTO 09005KT 10SM BKN037 23/23 A2990 RMK AO2 LTG DSNT W AND NW RAE27 TSB20E35 SLP126 P0011 T02330228


Wind From 090°
Speed 05 kn.

 
 
jpsmedia.com for Web Design worldairports.se 2018   terms of use